Terminal Aerodrome Forecast
Issued by NWS Cleveland, OH

Home | Current Version | Previous Version | Graphics & Text | Print | Product List | Glossary Off
Versions: 1 2 3 4 5 6 7 8 9 10 11 12 13 14 15 16 17 18 19 20 21 22 23 24

000
FTUS41 KCLE 051000 AAB
TAFYNG
TAF AMD
KYNG 051020Z 0510/0606 35012KT P6SM -SN BKN025 OVC100
     FM051300 34010KT P6SM OVC120
     FM051800 33010KT P6SM BKN250
     FM060000 31005KT P6SM FEW250=

USA.gov is the U.S. government's official web portal to all federal, state and local government web resources and services.